Time;durP1;ratioP1;P1;durP2;ratioP2;P2;SDS_P1;SDS_P2;PMS_P1;PMS_P2;Temp;Humidity;BMP_temperature;BMP_pressure;BME280_temperature;BME280_humidity;BME280_pressure;Samples;Min_cycle;Max_cycle;Signal;HPM_P1;HPM_P2
2023/03/13 00:02:10;;;;;;;11.53;6.17;;;;;;;2.53;100.00;99861.87;4916282;57;1135603;-82
2023/03/13 00:07:15;;;;;;;7.28;4.97;;;;;;;2.60;100.00;99863.20;4899580;57;1228108;-75
2023/03/13 00:12:21;;;;;;;8.53;5.13;;;;;;;2.69;100.00;99863.17;4962537;57;1134937;-78
2023/03/13 00:17:28;;;;;;;18.13;9.30;;;;;;;2.63;100.00;99857.81;4982914;56;1134785;-76
2023/03/13 00:22:33;;;;;;;8.83;5.80;;;;;;;2.60;100.00;99861.08;5050951;56;1137847;-77
2023/03/13 00:27:39;;;;;;;12.33;4.93;;;;;;;2.57;100.00;99859.94;5104605;56;1134483;-80
2023/03/13 00:32:47;;;;;;;12.87;8.33;;;;;;;2.53;100.00;99851.89;5062468;56;1136671;-75
2023/03/13 00:37:53;;;;;;;13.60;6.93;;;;;;;2.44;100.00;99845.42;5206948;55;1136636;-79
2023/03/13 00:42:58;;;;;;;10.93;5.47;;;;;;;2.44;100.00;99837.09;5201028;55;1136844;-77
2023/03/13 00:48:05;;;;;;;6.87;4.53;;;;;;;2.52;100.00;99832.77;5166421;56;1136763;-84
2023/03/13 00:53:11;;;;;;;9.78;6.08;;;;;;;2.48;100.00;99828.64;5166786;56;1134831;-82
2023/03/13 00:58:17;;;;;;;10.43;6.50;;;;;;;2.41;100.00;99828.63;5186254;57;1134974;-80
2023/03/13 01:03:25;;;;;;;7.03;5.57;;;;;;;2.39;100.00;99830.01;5166662;57;1136705;-81
2023/03/13 01:08:32;;;;;;;9.30;5.30;;;;;;;2.41;100.00;99828.63;5086837;56;1134655;-78
2023/03/13 01:13:40;;;;;;;9.05;6.78;;;;;;;2.43;100.00;99835.91;5115576;56;1134692;-81
2023/03/13 01:18:49;;;;;;;12.73;6.63;;;;;;;2.42;100.00;99829.84;5070999;55;1136881;-79
2023/03/13 01:23:56;;;;;;;11.47;5.40;;;;;;;2.43;100.00;99822.40;5166029;57;1136757;-77
2023/03/13 01:29:02;;;;;;;11.70;6.45;;;;;;;2.44;100.00;99816.22;5169888;56;1136884;-78
2023/03/13 01:34:10;;;;;;;10.57;7.17;;;;;;;2.52;100.00;99790.17;5080931;57;1136986;-78
2023/03/13 01:39:15;;;;;;;10.00;6.63;;;;;;;2.52;100.00;99787.56;5163699;56;1136874;-80
2023/03/13 01:44:27;;;;;;;11.55;7.25;;;;;;;2.50;100.00;99795.47;5110084;57;1136962;-79
2023/03/13 01:49:35;;;;;;;10.27;5.00;;;;;;;2.54;100.00;99795.69;5101525;58;1136925;-83
2023/03/13 01:55:09;;;;;;;14.00;8.00;;;;;;;2.56;100.00;99800.83;5140318;56;1136724;-77
2023/03/13 02:00:26;;;;;;;16.13;8.83;;;;;;;2.56;100.00;99803.44;5060160;56;1136752;-75
2023/03/13 02:05:33;;;;;;;16.23;10.10;;;;;;;2.61;100.00;99785.73;5074989;56;1136757;-79
2023/03/13 02:10:42;;;;;;;15.37;10.07;;;;;;;2.65;100.00;99774.19;5133327;55;1138876;-77
2023/03/13 02:15:49;;;;;;;15.83;10.80;;;;;;;2.67;100.00;99790.61;5160519;56;1138793;-78
2023/03/13 02:20:59;;;;;;;15.37;9.43;;;;;;;2.70;100.00;99789.14;5124490;57;1138830;-78
2023/03/13 02:26:06;;;;;;;14.45;10.50;;;;;;;2.74;100.00;99790.19;5166317;57;1137117;-77
2023/03/13 02:31:13;;;;;;;18.17;11.13;;;;;;;2.80;100.00;99775.92;5171758;56;1139075;-81
2023/03/13 02:36:19;;;;;;;20.10;10.97;;;;;;;2.88;100.00;99789.86;5083415;56;1138835;-81
2023/03/13 02:41:26;;;;;;;18.30;11.20;;;;;;;2.92;100.00;99769.98;5017533;56;1138855;-81
2023/03/13 02:46:47;;;;;;;18.20;11.07;;;;;;;2.99;100.00;99771.79;5043097;56;1138957;-79
2023/03/13 02:51:56;;;;;;;19.77;11.37;;;;;;;3.06;100.00;99771.79;4997737;56;1138718;-78
2023/03/13 02:57:05;;;;;;;20.10;12.40;;;;;;;3.12;100.00;99767.52;4984360;56;1138888;-79
2023/03/13 03:02:11;;;;;;;22.50;11.07;;;;;;;3.17;100.00;99766.80;5042731;56;1139092;-80
2023/03/13 03:07:17;;;;;;;17.05;11.73;;;;;;;3.26;100.00;99764.09;5003868;56;1147350;-81
2023/03/13 03:12:23;;;;;;;26.05;12.43;;;;;;;3.31;100.00;99762.89;5028496;56;1140949;-81
2023/03/13 03:17:29;;;;;;;20.12;11.88;;;;;;;3.35;100.00;99760.95;5070860;56;1139144;-82
2023/03/13 03:22:37;;;;;;;16.07;11.10;;;;;;;3.39;100.00;99761.11;5103147;56;1138854;-82
2023/03/13 03:27:43;;;;;;;16.70;11.33;;;;;;;3.42;100.00;99756.55;5132106;56;1138748;-81
2023/03/13 03:32:49;;;;;;;20.87;12.77;;;;;;;3.51;100.00;99759.90;5024363;56;1140957;-78
2023/03/13 03:37:55;;;;;;;18.93;12.50;;;;;;;3.56;100.00;99750.48;5096967;56;1139136;-81
2023/03/13 03:43:01;;;;;;;16.50;11.37;;;;;;;3.60;100.00;99750.67;5077840;56;1138785;-82
2023/03/13 03:48:09;;;;;;;24.90;13.17;;;;;;;3.66;100.00;99756.01;5061452;56;1138882;-80
2023/03/13 03:53:15;;;;;;;20.85;11.08;;;;;;;3.70;100.00;99743.09;4944847;57;1138880;-79
2023/03/13 03:58:22;;;;;;;18.32;11.70;;;;;;;3.76;100.00;99740.11;5086215;57;1141089;-80
2023/03/13 04:03:35;;;;;;;23.10;12.80;;;;;;;3.81;100.00;99728.91;4940598;57;1138880;-78
2023/03/13 04:08:41;;;;;;;16.43;9.87;;;;;;;3.88;100.00;99707.48;5066977;56;1138824;-81
2023/03/13 04:13:49;;;;;;;18.80;10.77;;;;;;;3.88;100.00;99707.48;5087223;56;1136718;-77
2023/03/13 04:18:55;;;;;;;25.27;13.90;;;;;;;3.96;100.00;99699.64;5026717;56;1140978;-80
2023/03/13 04:24:02;;;;;;;22.27;10.40;;;;;;;4.01;100.00;99696.24;5061510;56;1141011;-77
2023/03/13 04:29:09;;;;;;;14.97;9.50;;;;;;;4.08;100.00;99696.23;5016133;56;1138906;-80
2023/03/13 04:34:19;;;;;;;17.00;9.47;;;;;;;4.15;100.00;99694.89;5088962;56;1138738;-82
2023/03/13 04:39:32;;;;;;;18.03;9.97;;;;;;;4.23;100.00;99686.93;5050479;56;1136754;-83
2023/03/13 04:44:55;;;;;;;;;;;;;;;4.34;100.00;99678.38;5098209;56;1139075;-77
2023/03/13 04:50:05;;;;;;;17.27;8.43;;;;;;;4.43;100.00;99679.06;5084654;56;974331;-78
2023/03/13 04:55:24;;;;;;;15.25;7.87;;;;;;;4.50;100.00;99682.97;5024192;56;1136959;-81
2023/03/13 05:00:36;;;;;;;13.10;7.37;;;;;;;4.57;100.00;99669.86;5077391;56;1139060;-79
2023/03/13 05:06:00;;;;;;;20.20;7.28;;;;;;;4.64;100.00;99671.58;5098235;56;1138942;-76
2023/03/13 05:11:12;;;;;;;;;;;;;;;4.70;100.00;99646.77;5032493;56;1139000;-79
2023/03/13 05:16:23;;;;;;;10.82;5.78;;;;;;;4.75;100.00;99649.90;5047611;56;974105;-78
2023/03/13 05:21:42;;;;;;;14.17;7.23;;;;;;;4.79;100.00;99656.61;5083401;56;1136735;-79
2023/03/13 05:26:55;;;;;;;21.35;6.90;;;;;;;4.83;100.00;99648.92;5082782;57;1139058;-77
2023/03/13 05:32:12;;;;;;;15.73;7.67;;;;;;;4.86;100.00;99639.08;5073061;56;1138993;-82
2023/03/13 05:37:35;;;;;;;10.72;5.95;;;;;;;4.89;100.00;99650.64;5059918;56;1138794;-82
2023/03/13 05:42:58;;;;;;;8.88;4.90;;;;;;;4.91;100.00;99642.68;5023539;56;1138794;-78
2023/03/13 05:48:21;;;;;;;13.00;5.53;;;;;;;4.91;100.00;99637.44;4953664;56;1137121;-72
2023/03/13 05:53:43;;;;;;;12.27;5.57;;;;;;;4.94;100.00;99632.83;5024407;57;1138792;-74
2023/03/13 05:58:56;;;;;;;8.98;4.67;;;;;;;4.99;100.00;99636.45;5053276;57;1138736;-72
2023/03/13 06:04:09;;;;;;;16.73;5.67;;;;;;;5.04;100.00;99640.08;5168053;55;1136623;-69
2023/03/13 06:09:17;;;;;;;7.03;5.10;;;;;;;5.08;100.00;99627.11;5083145;57;1139030;-72
2023/03/13 06:14:23;;;;;;;11.07;5.80;;;;;;;5.11;100.00;99619.04;5141855;56;1137281;-69
2023/03/13 06:19:50;;;;;;;13.80;5.77;;;;;;;5.17;100.00;99612.91;5118124;56;1138860;-71
2023/03/13 06:24:56;;;;;;;15.43;5.13;;;;;;;5.22;100.00;99591.13;5135215;56;1138963;-71
2023/03/13 06:30:01;;;;;;;10.07;4.63;;;;;;;5.29;100.00;99584.52;5160446;56;1138925;-67
2023/03/13 06:35:08;;;;;;;18.67;5.23;;;;;;;5.40;100.00;99573.73;5017794;58;1138754;-70
2023/03/13 06:40:14;;;;;;;12.23;4.85;;;;;;;5.53;100.00;99573.22;5158190;56;1139279;-71
2023/03/13 06:45:19;;;;;;;10.83;4.83;;;;;;;5.65;100.00;99563.18;5136580;56;1139197;-67
2023/03/13 06:50:25;;;;;;;18.65;5.40;;;;;;;5.77;100.00;99558.34;5087190;56;1138968;-76
2023/03/13 06:55:31;;;;;;;12.98;4.25;;;;;;;5.89;100.00;99546.14;5030400;55;1139081;-69
2023/03/13 07:00:38;;;;;;;9.50;3.60;;;;;;;6.03;100.00;99554.30;4952637;57;1138772;-73
2023/03/13 07:05:44;;;;;;;15.13;4.23;;;;;;;6.15;100.00;99546.34;4922339;57;1136710;-72
2023/03/13 07:10:51;;;;;;;24.07;8.73;;;;;;;6.31;100.00;99536.84;4945042;57;1138980;-73
2023/03/13 07:16:06;;;;;;;20.07;4.53;;;;;;;6.31;100.00;99536.84;5101459;56;1138940;-66
2023/03/13 07:21:13;;;;;;;15.07;5.43;;;;;;;6.37;100.00;99527.67;5074973;56;1138848;-68
2023/03/13 07:26:20;;;;;;;17.48;4.65;;;;;;;6.44;100.00;99522.30;5107061;56;1139147;-70
2023/03/13 07:31:26;;;;;;;18.37;5.60;;;;;;;6.51;100.00;99511.69;5108963;56;1138863;-70
2023/03/13 07:36:34;;;;;;;13.27;5.27;;;;;;;6.57;100.00;99510.72;5118917;56;1138832;-68
2023/03/13 07:41:41;;;;;;;18.63;5.57;;;;;;;6.60;100.00;99490.79;5107580;57;1138832;-67
2023/03/13 07:46:48;;;;;;;8.00;4.03;;;;;;;6.71;100.00;99489.98;5070552;56;1139026;-71
2023/03/13 07:51:54;;;;;;;18.50;5.53;;;;;;;6.78;100.00;99491.63;5114688;56;1136695;-71
2023/03/13 07:57:02;;;;;;;20.17;5.73;;;;;;;6.85;100.00;99481.01;5142577;57;1138877;-72
2023/03/13 08:02:17;;;;;;;13.68;4.28;;;;;;;6.89;100.00;99478.00;5082397;57;1139048;-68
2023/03/13 08:07:19;;;;;;;17.30;5.23;;;;;;;6.95;100.00;99470.11;5065222;57;1139015;-69
2023/03/13 08:12:25;;;;;;;20.97;5.47;;;;;;;7.01;100.00;99456.50;5106327;57;1138864;-73
2023/03/13 08:17:31;;;;;;;15.83;5.53;;;;;;;7.09;100.00;99455.39;5084094;57;1138961;-72
2023/03/13 08:22:37;;;;;;;18.43;4.83;;;;;;;7.17;100.00;99439.85;5001492;56;1139309;-73
2023/03/13 08:27:42;;;;;;;20.90;5.90;;;;;;;7.24;100.00;99438.38;4962600;57;1138923;-73
2023/03/13 08:32:48;;;;;;;12.30;4.77;;;;;;;7.31;100.00;99426.89;5024162;57;1138915;-66
2023/03/13 08:37:54;;;;;;;12.20;4.90;;;;;;;7.36;100.00;99426.86;5008005;56;1138850;-68
2023/03/13 08:42:59;;;;;;;14.70;5.47;;;;;;;7.42;100.00;99418.95;4922908;56;1139224;-73
2023/03/13 08:48:06;;;;;;;18.20;5.17;;;;;;;7.43;100.00;99406.64;4964027;56;1138849;-69
2023/03/13 08:53:11;;;;;;;15.73;5.40;;;;;;;7.47;100.00;99398.85;4888070;57;1138878;-70
2023/03/13 08:58:17;;;;;;;19.13;6.60;;;;;;;7.51;100.00;99389.24;4947987;57;1138905;-75
2023/03/13 09:03:23;;;;;;;14.80;5.10;;;;;;;7.59;100.00;99384.20;4925772;57;1139220;-68
2023/03/13 09:08:30;;;;;;;16.77;5.67;;;;;;;7.65;100.00;99381.03;4961746;57;1138966;-73
2023/03/13 09:13:39;;;;;;;20.30;5.50;;;;;;;7.73;100.00;99373.34;4961149;57;1139093;-73
2023/03/13 09:18:46;;;;;;;15.73;4.90;;;;;;;7.83;100.00;99363.34;4980756;57;1138827;-73
2023/03/13 09:23:52;;;;;;;23.00;5.90;;;;;;;7.95;100.00;99343.39;4930307;57;1139208;-73
2023/03/13 09:28:58;;;;;;;17.40;6.07;;;;;;;8.07;100.00;99336.27;4972591;57;1139195;-74
2023/03/13 09:34:04;;;;;;;17.77;5.73;;;;;;;8.18;100.00;99318.21;4993896;57;1138840;-73
2023/03/13 09:39:11;;;;;;;22.30;6.17;;;;;;;8.26;100.00;99299.92;4911824;57;1138974;-71
2023/03/13 09:44:24;;;;;;;21.30;5.23;;;;;;;8.36;100.00;99287.67;4939349;57;1138949;-73
2023/03/13 09:49:50;;;;;;;18.57;5.50;;;;;;;8.42;100.00;99283.16;4970978;57;1138810;-71
2023/03/13 09:55:19;;;;;;;20.40;5.57;;;;;;;8.48;100.00;99273.89;4993337;56;1138933;-69
2023/03/13 10:00:29;;;;;;;21.52;6.15;;;;;;;8.52;100.00;99273.48;5000631;57;1138806;-73
2023/03/13 10:05:35;;;;;;;21.30;5.93;;;;;;;8.55;100.00;99272.39;5047049;57;1138796;-71
2023/03/13 10:11:11;;;;;;;15.27;4.77;;;;;;;8.54;100.00;99270.23;5000161;57;1139050;-71
2023/03/13 10:16:39;;;;;;;24.30;5.83;;;;;;;8.54;100.00;99268.09;4980258;57;1138974;-68
2023/03/13 10:21:49;;;;;;;22.10;5.23;;;;;;;8.53;100.00;99276.47;4991572;56;1138915;-74
2023/03/13 10:26:57;;;;;;;16.63;5.83;;;;;;;8.51;100.00;99252.05;5019492;56;1138874;-72
2023/03/13 10:32:06;;;;;;;29.33;6.73;;;;;;;8.48;100.00;99250.17;5005313;56;1138894;-75
2023/03/13 10:37:22;;;;;;;13.70;5.58;;;;;;;8.40;100.00;99240.33;4996803;57;1139040;-73
2023/03/13 10:42:34;;;;;;;18.67;6.22;;;;;;;8.31;100.00;99231.39;5059634;56;1138866;-70
2023/03/13 10:47:40;;;;;;;17.40;6.43;;;;;;;8.26;100.00;99228.32;4987032;56;1138825;-72
2023/03/13 10:52:48;;;;;;;20.90;7.33;;;;;;;8.22;100.00;99203.25;4924743;57;1138870;-72
2023/03/13 10:58:04;;;;;;;20.10;6.70;;;;;;;8.20;100.00;99203.03;4961195;57;1138703;-75
2023/03/13 11:03:26;;;;;;;13.60;5.83;;;;;;;8.19;100.00;99193.47;4873808;57;1138864;-73
2023/03/13 11:08:38;;;;;;;35.23;9.93;;;;;;;8.18;100.00;99185.21;4957556;57;1139029;-71
2023/03/13 11:13:45;;;;;;;24.23;7.10;;;;;;;8.17;100.00;99163.80;4904599;57;1139219;-66
2023/03/13 11:19:11;;;;;;;19.97;6.50;;;;;;;8.19;100.00;99165.81;4951029;57;1139008;-69
2023/03/13 11:24:51;;;;;;;14.97;6.10;;;;;;;8.19;100.00;99163.17;4967596;57;1139061;-72
2023/03/13 11:30:22;;;;;;;19.37;7.20;;;;;;;8.21;100.00;99151.54;5015550;56;1138866;-69
2023/03/13 11:35:42;;;;;;;16.97;6.70;;;;;;;8.25;100.00;99138.94;4962228;56;1139046;-70
2023/03/13 11:41:07;;;;;;;24.60;7.13;;;;;;;8.27;100.00;99131.22;4982082;57;1138837;-77
2023/03/13 11:46:41;;;;;;;24.93;9.17;;;;;;;8.28;100.00;99129.41;4994227;57;1138856;-69
2023/03/13 11:52:03;;;;;;;20.93;7.20;;;;;;;8.29;100.00;99132.40;5022581;56;1138819;-70
2023/03/13 11:57:16;;;;;;;20.33;6.90;;;;;;;8.28;100.00;99122.34;4976906;57;1138818;-71
2023/03/13 12:02:37;;;;;;;;;;;;;;;8.28;100.00;99124.15;4987579;57;1139162;-72
2023/03/13 12:08:08;;;;;;;18.23;6.57;;;;;;;8.29;100.00;99122.70;4998636;56;974071;-67
2023/03/13 12:13:25;;;;;;;12.53;5.17;;;;;;;8.31;100.00;99108.07;4988942;56;1136867;-76
2023/03/13 12:18:40;;;;;;;11.03;5.42;;;;;;;8.36;100.00;99094.87;4989068;56;1139012;-73
2023/03/13 12:24:19;;;;;;;8.90;4.87;;;;;;;8.40;100.00;99087.02;5002627;56;1138934;-73
2023/03/13 12:29:39;;;;;;;9.73;4.77;;;;;;;8.48;100.00;99077.59;5001696;57;1136769;-77
2023/03/13 12:34:55;;;;;;;9.03;4.00;;;;;;;8.48;100.00;99059.98;4987137;56;1137054;-76
2023/03/13 12:40:23;;;;;;;11.70;6.90;;;;;;;8.56;100.00;99075.06;4996609;57;1136774;-73
2023/03/13 12:45:29;;;;;;;6.83;4.33;;;;;;;8.60;100.00;99060.64;4996407;56;1138720;-75
2023/03/13 12:51:12;;;;;;;10.80;4.23;;;;;;;8.66;100.00;99041.64;4982778;57;1136778;-70
2023/03/13 12:56:28;;;;;;;6.73;4.00;;;;;;;8.68;100.00;99039.21;4937090;57;1138923;-73
2023/03/13 13:01:53;;;;;;;7.58;3.62;;;;;;;8.73;100.00;99036.95;5001493;57;1136856;-70
2023/03/13 13:07:05;;;;;;;8.30;5.23;;;;;;;8.79;100.00;99029.80;4978360;57;1136940;-75
2023/03/13 13:12:21;;;;;;;6.80;3.27;;;;;;;8.83;100.00;99020.30;4974846;57;1136737;-74
2023/03/13 13:17:58;;;;;;;5.20;3.07;;;;;;;8.87;100.00;99010.61;4983937;57;1136779;-73
2023/03/13 13:23:32;;;;;;;14.40;4.87;;;;;;;8.92;100.00;99004.91;4988718;57;1136751;-68
2023/03/13 13:28:36;;;;;;;12.18;5.08;;;;;;;8.95;100.00;99011.22;5000671;57;1139058;-74
2023/03/13 13:33:42;;;;;;;7.42;2.77;;;;;;;8.99;100.00;99004.20;4982110;57;1138976;-69
2023/03/13 13:38:48;;;;;;;10.47;4.10;;;;;;;9.06;100.00;98986.80;4991772;57;1136812;-71
2023/03/13 13:44:24;;;;;;;13.03;3.60;;;;;;;9.16;100.00;99008.70;5051462;56;1138509;-71
2023/03/13 13:49:36;;;;;;;10.05;4.00;;;;;;;9.23;100.00;99000.18;4980948;57;1138984;-70
2023/03/13 13:54:54;;;;;;;9.50;4.13;;;;;;;9.29;100.00;98996.47;4981377;57;1138812;-74
2023/03/13 14:00:07;;;;;;;9.80;3.83;;;;;;;9.38;100.00;98984.19;4995019;57;1136759;-73
2023/03/13 14:05:25;;;;;;;15.23;4.33;;;;;;;9.46;100.00;98977.20;4958941;57;1136697;-69
2023/03/13 14:10:47;;;;;;;10.93;4.23;;;;;;;9.50;100.00;98986.45;4948361;57;1139685;-71
2023/03/13 14:15:54;;;;;;;10.83;5.20;;;;;;;9.59;100.00;98999.75;4944705;57;1138849;-73
2023/03/13 14:21:12;;;;;;;13.23;5.53;;;;;;;9.63;100.00;98995.32;4983296;57;1139105;-72
2023/03/13 14:26:19;;;;;;;7.90;4.57;;;;;;;9.67;100.00;98993.22;5009125;57;1138961;-76
2023/03/13 14:31:37;;;;;;;5.80;3.50;;;;;;;9.72;100.00;98975.13;4968407;57;1136671;-70
2023/03/13 14:36:57;;;;;;;15.32;6.22;;;;;;;9.75;100.00;98966.42;4860264;58;1136691;-72
2023/03/13 14:42:16;;;;;;;17.50;8.40;;;;;;;9.83;100.00;98955.91;4785745;59;1138869;-71
2023/03/13 14:47:30;;;;;;;13.05;5.67;;;;;;;9.92;100.00;98956.83;4851253;58;1138971;-71
2023/03/13 14:52:38;;;;;;;13.22;3.67;;;;;;;9.99;100.00;98949.94;5025487;57;1139031;-67
2023/03/13 14:58:06;;;;;;;16.80;5.83;;;;;;;10.07;100.00;98938.62;4966328;57;1139091;-71
2023/03/13 15:03:23;;;;;;;11.37;5.73;;;;;;;10.10;100.00;98944.40;5038389;57;1141110;-71
2023/03/13 15:08:29;;;;;;;15.63;7.73;;;;;;;10.17;100.00;98941.98;4989328;57;1140945;-76
2023/03/13 15:13:37;;;;;;;13.27;6.17;;;;;;;10.21;100.00;98938.91;5047850;57;1140942;-73
2023/03/13 15:18:43;;;;;;;15.23;6.47;;;;;;;10.27;100.00;98945.86;5050282;57;1141013;-69
2023/03/13 15:24:00;;;;;;;17.37;6.53;;;;;;;10.35;100.00;98941.47;5140817;56;1140921;-68
2023/03/13 15:29:06;;;;;;;11.80;4.42;;;;;;;10.44;100.00;98938.38;5050407;56;1141002;-74
2023/03/13 15:34:15;;;;;;;8.10;4.45;;;;;;;10.58;100.00;98933.82;5045466;56;1140904;-73
2023/03/13 15:39:23;;;;;;;18.03;7.77;;;;;;;10.66;100.00;98941.81;4969670;56;1138875;-70
2023/03/13 15:44:29;;;;;;;7.87;3.87;;;;;;;10.72;100.00;98937.69;4982571;57;1140778;-76
2023/03/13 15:49:35;;;;;;;14.07;6.20;;;;;;;10.75;100.00;98928.12;4999269;57;1138836;-77
2023/03/13 15:54:40;;;;;;;8.50;4.40;;;;;;;10.77;100.00;98935.41;5037072;56;1140903;-72
2023/03/13 15:59:46;;;;;;;11.00;4.87;;;;;;;10.80;100.00;98931.95;4927175;56;1138951;-76
2023/03/13 16:04:54;;;;;;;8.47;3.67;;;;;;;10.84;100.00;98926.69;5009177;56;1141116;-70
2023/03/13 16:10:00;;;;;;;9.30;4.30;;;;;;;10.89;100.00;98923.05;4908994;56;1138883;-70
2023/03/13 16:15:07;;;;;;;18.23;6.60;;;;;;;10.96;100.00;98931.68;4933406;57;1138960;-71
2023/03/13 16:20:18;;;;;;;20.37;7.60;;;;;;;11.01;100.00;98924.07;4964855;57;1141154;-69
2023/03/13 16:25:25;;;;;;;9.27;5.53;;;;;;;11.05;100.00;98919.63;5002115;56;1141014;-72
2023/03/13 16:30:33;;;;;;;8.60;4.57;;;;;;;11.01;100.00;98909.52;4966927;55;1138846;-73
2023/03/13 16:35:39;;;;;;;11.57;5.50;;;;;;;11.08;100.00;98913.19;5046592;55;1138973;-71
2023/03/13 16:40:45;;;;;;;11.17;5.07;;;;;;;11.10;100.00;98923.95;4962914;57;1140888;-71
2023/03/13 16:45:50;;;;;;;17.40;8.47;;;;;;;11.11;100.00;98915.52;5043466;56;1140913;-75
2023/03/13 16:50:57;;;;;;;17.87;10.30;;;;;;;11.10;100.00;98919.16;4991940;56;1140956;-74
2023/03/13 16:56:03;;;;;;;75.13;34.10;;;;;;;11.08;100.00;98921.13;5004367;56;1143059;-78
2023/03/13 17:01:10;;;;;;;32.37;18.33;;;;;;;11.07;100.00;98928.73;4943294;57;1143364;-78
2023/03/13 17:06:24;;;;;;;27.98;16.32;;;;;;;11.08;100.00;98929.07;4974868;57;1143216;-82
2023/03/13 17:11:31;;;;;;;20.97;10.98;;;;;;;11.07;100.00;98924.27;4872111;58;1143049;-81
2023/03/13 17:16:45;;;;;;;10.77;5.27;;;;;;;11.09;100.00;98917.50;4970213;57;1143216;-77
2023/03/13 17:21:51;;;;;;;63.87;26.20;;;;;;;11.06;100.00;98908.06;4957499;57;1140923;-82
2023/03/13 17:26:57;;;;;;;14.83;6.83;;;;;;;11.11;100.00;98907.09;4951844;57;1143273;-77
2023/03/13 17:32:04;;;;;;;11.03;5.07;;;;;;;11.14;100.00;98905.45;4955947;56;1141101;-78
2023/03/13 17:37:18;;;;;;;11.83;4.40;;;;;;;11.20;100.00;98900.81;4985130;57;1140889;-79
2023/03/13 17:42:25;;;;;;;10.25;4.28;;;;;;;11.25;100.00;98914.89;4931866;58;1141062;-83
2023/03/13 17:47:30;;;;;;;12.67;4.80;;;;;;;11.28;100.00;98910.61;4995009;56;1141422;-81
2023/03/13 17:52:36;;;;;;;8.83;4.58;;;;;;;11.28;100.00;98903.49;5061822;56;1141150;-83
2023/03/13 17:57:43;;;;;;;18.43;7.90;;;;;;;11.31;100.00;98894.87;5012874;55;1139006;-77
2023/03/13 18:02:49;;;;;;;22.33;11.70;;;;;;;11.35;100.00;98882.97;4984472;56;1141178;-80
2023/03/13 18:07:57;;;;;;;41.83;17.47;;;;;;;11.39;100.00;98889.60;4827075;58;1143190;-85
2023/03/13 18:13:03;;;;;;;89.10;34.80;;;;;;;11.36;100.00;98877.52;4901072;57;1143190;-78
2023/03/13 18:18:17;;;;;;;145.57;59.43;;;;;;;11.32;100.00;98864.27;4934874;57;1143205;-78
2023/03/13 18:23:22;;;;;;;57.15;21.97;;;;;;;11.28;100.00;98866.94;5003120;56;1145219;-77
2023/03/13 18:28:28;;;;;;;37.90;15.90;;;;;;;11.21;100.00;98865.42;4984538;56;1143572;-85
2023/03/13 18:33:34;;;;;;;30.88;14.35;;;;;;;11.16;100.00;98849.20;4928207;56;1143366;-81
2023/03/13 18:38:41;;;;;;;20.80;10.93;;;;;;;11.11;100.00;98854.67;4923063;58;1143068;-80
2023/03/13 18:43:47;;;;;;;16.17;7.33;;;;;;;11.05;100.00;98852.66;4904221;57;1143163;-76
2023/03/13 18:48:53;;;;;;;28.87;10.60;;;;;;;10.99;100.00;98855.48;4904389;57;1140915;-82
2023/03/13 18:54:00;;;;;;;14.93;7.30;;;;;;;10.95;100.00;98840.92;4922963;56;1143057;-78
2023/03/13 18:59:09;;;;;;;22.73;10.20;;;;;;;10.92;100.00;98859.75;4903817;57;1140917;-81
2023/03/13 19:04:18;;;;;;;12.37;6.50;;;;;;;10.87;100.00;98845.67;4907182;56;1143140;-78
2023/03/13 19:09:24;;;;;;;22.47;9.17;;;;;;;10.87;100.00;98827.66;4910421;57;1141076;-78
2023/03/13 19:14:30;;;;;;;16.90;8.00;;;;;;;10.82;100.00;98836.59;4923063;56;1140953;-79
2023/03/13 19:19:36;;;;;;;13.20;8.37;;;;;;;10.76;100.00;98839.38;4892676;56;1140867;-82
2023/03/13 19:24:42;;;;;;;12.93;7.10;;;;;;;10.70;100.00;98840.01;5033441;57;1140761;-85
2023/03/13 19:29:48;;;;;;;22.10;8.70;;;;;;;10.67;100.00;98827.63;5013584;56;1140843;-84
2023/03/13 19:34:54;;;;;;;27.70;10.33;;;;;;;10.64;100.00;98816.88;4963160;56;1140999;-80
2023/03/13 19:39:59;;;;;;;13.80;5.77;;;;;;;10.64;100.00;98816.88;4918314;57;1142961;-80
2023/03/13 19:45:06;;;;;;;16.57;8.57;;;;;;;10.64;100.00;98817.37;4932204;57;1141000;-76
2023/03/13 19:50:22;;;;;;;31.63;13.17;;;;;;;10.65;100.00;98823.82;5006686;56;1141329;-77
2023/03/13 19:55:28;;;;;;;20.88;8.78;;;;;;;10.70;100.00;98812.73;4935332;57;1142929;-79
2023/03/13 20:00:36;;;;;;;23.38;9.53;;;;;;;10.70;100.00;98813.56;4951811;56;1141069;-79
2023/03/13 20:05:41;;;;;;;47.73;13.22;;;;;;;10.70;100.00;98784.98;4957649;56;1140938;-81
2023/03/13 20:10:47;;;;;;;32.87;10.37;;;;;;;10.70;100.00;98773.08;4999233;56;1143181;-82
2023/03/13 20:15:53;;;;;;;18.87;7.57;;;;;;;10.74;100.00;98778.38;4920036;57;1142836;-78
2023/03/13 20:21:00;;;;;;;16.73;7.20;;;;;;;10.76;100.00;98781.20;4989764;55;1140809;-73
2023/03/13 20:26:10;;;;;;;20.67;7.40;;;;;;;10.78;100.00;98765.17;5026078;56;1141068;-81
2023/03/13 20:31:20;;;;;;;24.30;8.63;;;;;;;10.79;100.00;98762.38;4973362;57;1140838;-75
2023/03/13 20:36:26;;;;;;;23.45;8.30;;;;;;;10.86;100.00;98752.78;4898602;57;1140747;-81
2023/03/13 20:41:32;;;;;;;24.32;8.98;;;;;;;10.87;100.00;98766.33;4967592;55;1140906;-78
2023/03/13 20:46:38;;;;;;;48.73;15.20;;;;;;;10.89;100.00;98764.85;4954074;57;1141008;-77
2023/03/13 20:51:44;;;;;;;21.17;7.03;;;;;;;10.90;100.00;98749.31;4938212;57;1143225;-80
2023/03/13 20:56:49;;;;;;;13.83;6.00;;;;;;;10.97;100.00;98750.83;4953183;56;1140869;-76
2023/03/13 21:01:55;;;;;;;10.43;4.47;;;;;;;11.00;100.00;98755.80;4940670;57;1140799;-76
2023/03/13 21:07:03;;;;;;;10.63;5.93;;;;;;;11.08;100.00;98752.64;4919776;57;1140974;-78
2023/03/13 21:12:10;;;;;;;7.87;4.23;;;;;;;11.13;100.00;98746.37;5015586;56;1141026;-82
2023/03/13 21:17:16;;;;;;;14.90;4.75;;;;;;;11.22;100.00;98745.85;4965932;57;1138992;-78
2023/03/13 21:22:22;;;;;;;10.73;5.07;;;;;;;11.29;100.00;98752.15;4962667;57;1140884;-74
2023/03/13 21:27:28;;;;;;;6.10;3.80;;;;;;;11.36;100.00;98751.80;5008661;57;1140761;-79
2023/03/13 21:32:39;;;;;;;7.03;4.30;;;;;;;11.39;100.00;98742.70;5009188;57;1138901;-73
2023/03/13 21:37:46;;;;;;;12.10;4.37;;;;;;;11.39;100.00;98742.70;5028501;57;1138725;-80
2023/03/13 21:42:51;;;;;;;11.60;5.20;;;;;;;11.40;100.00;98728.47;5008497;57;1140750;-76
2023/03/13 21:47:57;;;;;;;26.10;10.80;;;;;;;11.40;100.00;98706.80;5008663;57;1140897;-79
2023/03/13 21:53:04;;;;;;;13.53;5.37;;;;;;;11.42;100.00;98712.75;4988297;56;1143050;-79
2023/03/13 21:58:09;;;;;;;14.93;7.70;;;;;;;11.44;100.00;98694.89;4971766;57;1140838;-74
2023/03/13 22:03:15;;;;;;;5.13;3.67;;;;;;;11.46;100.00;98680.95;4927668;57;1145090;-77
2023/03/13 22:08:22;;;;;;;8.72;4.28;;;;;;;11.44;100.00;98664.94;5040238;57;1138853;-78
2023/03/13 22:13:28;;;;;;;6.64;3.82;;;;;;;11.48;100.00;98637.94;4958006;57;1138837;-81
2023/03/13 22:18:34;;;;;;;12.20;5.20;;;;;;;11.52;100.00;98631.31;4977458;56;1138934;-77
2023/03/13 22:23:40;;;;;;;10.30;4.20;;;;;;;11.57;100.00;98616.25;4890366;58;1140927;-77
2023/03/13 22:28:46;;;;;;;19.90;8.37;;;;;;;11.59;100.00;98632.30;4874922;58;1140947;-82
2023/03/13 22:33:53;;;;;;;18.35;6.28;;;;;;;11.61;100.00;98637.39;4871801;58;1141144;-80
2023/03/13 22:39:00;;;;;;;7.00;3.53;;;;;;;11.64;100.00;98635.23;4901442;57;1140926;-79
2023/03/13 22:44:06;;;;;;;8.70;4.43;;;;;;;11.69;100.00;98629.93;4884990;58;1138711;-78
2023/03/13 22:49:14;;;;;;;9.75;4.72;;;;;;;11.71;100.00;98608.08;4872293;58;1138952;-75
2023/03/13 22:54:20;;;;;;;12.53;6.43;;;;;;;11.77;100.00;98626.77;4948152;57;1138901;-76
2023/03/13 22:59:26;;;;;;;4.13;3.10;;;;;;;11.85;100.00;98619.30;5011746;57;1140914;-78
2023/03/13 23:04:31;;;;;;;9.30;5.58;;;;;;;11.90;100.00;98605.86;4981496;57;1138944;-82
2023/03/13 23:09:37;;;;;;;8.03;4.47;;;;;;;11.95;100.00;98625.19;5000504;56;1138688;-78
2023/03/13 23:14:43;;;;;;;6.17;3.87;;;;;;;12.00;100.00;98622.85;5060158;56;1138915;-77
2023/03/13 23:19:49;;;;;;;5.33;3.63;;;;;;;11.98;100.00;98615.08;5062779;56;1138887;-79
2023/03/13 23:24:55;;;;;;;11.17;4.03;;;;;;;11.99;100.00;98625.17;5082765;56;1138900;-81